Shady Valley, Tennessee
Current Conditions -  °F | °C
As of 11:55 AM on Monday 22 Dec 2014 (Local Time) from KVJI Reporting Station
Clear Clear  
Wind Chill: 51°   Ceiling: Unl
Heat Index: 51°   Visibility: 10mi
Dew Point: 40°   Wind: 13mph
Humidity: 66%   Direction: 90°E
Pressure: 29.99"   Gusts: NA
Location:  36.52°N, 81.93°W
Report Text: KVJI 221655Z AUTO 09011KT 060V120 10SM CLR 10/04 A2999 RMK AO2 T01030042
Loading
Personal Weather Stations






























Interactive Weather Map New forecast layout! Learn more

10-Day Weather Forecast

Advertisements
Track Severe Weather on mobile